Time;durP1;ratioP1;P1;durP2;ratioP2;P2;SDS_P1;SDS_P2;PMS_P1;PMS_P2;Temp;Humidity;BMP_temperature;BMP_pressure;BME280_temperature;BME280_humidity;BME280_pressure;Samples;Min_cycle;Max_cycle;Signal;HPM_P1;HPM_P2
2022/07/31 04:22:49;;;;;;;6.32;3.55;;;;;;;15.77;81.02;100416.16;5089279;28;20366;-68
2022/07/31 04:25:25;;;;;;;4.60;3.60;;;;;;;15.83;80.64;100417.22;5087912;28;20047;-69
2022/07/31 04:28:07;;;;;;;6.05;4.00;;;;;;;15.91;80.56;100423.25;5087883;28;20740;-69
2022/07/31 04:30:33;;;;;;;5.03;3.75;;;;;;;15.97;80.66;100414.38;5103001;22;20452;-69
2022/07/31 04:32:58;;;;;;;4.30;3.40;;;;;;;16.05;79.85;100417.91;5074255;28;20028;-69
2022/07/31 04:35:24;;;;;;;4.95;3.17;;;;;;;16.13;79.77;100425.75;5090831;28;20426;-67
2022/07/31 04:37:50;;;;;;;4.75;3.42;;;;;;;16.19;79.60;100427.63;5090826;28;20043;-69
2022/07/31 04:40:16;;;;;;;5.40;3.45;;;;;;;16.29;79.43;100433.41;5090449;28;20031;-69
2022/07/31 04:42:42;;;;;;;4.07;3.53;;;;;;;16.33;79.74;100437.34;5108978;28;20492;-69
2022/07/31 04:45:08;;;;;;;4.53;3.58;;;;;;;16.39;79.64;100433.00;5090628;28;20052;-69
2022/07/31 04:47:34;;;;;;;4.75;4.03;;;;;;;16.38;78.74;100434.06;5090545;28;20585;-69
2022/07/31 04:50:00;;;;;;;5.13;3.85;;;;;;;16.43;79.29;100437.78;5090156;28;20140;-69
2022/07/31 04:52:25;;;;;;;3.92;3.10;;;;;;;16.48;80.46;100443.34;5090508;28;20449;-69
2022/07/31 04:54:51;;;;;;;4.43;3.50;;;;;;;16.54;78.90;100442.50;5090361;28;20040;-69
2022/07/31 04:57:17;;;;;;;6.78;4.05;;;;;;;16.49;78.69;100444.97;5090465;28;20032;-69
2022/07/31 04:59:42;;;;;;;5.50;3.53;;;;;;;16.58;80.15;100444.81;5089934;28;20441;-69
2022/07/31 05:02:08;;;;;;;5.80;3.60;;;;;;;16.61;80.38;100449.75;5090209;28;20047;-69
2022/07/31 05:04:33;;;;;;;4.03;3.40;;;;;;;16.68;80.12;100447.88;5090309;28;20036;-69
2022/07/31 05:06:59;;;;;;;5.22;3.97;;;;;;;16.75;79.12;100446.03;5090207;28;20067;-69
2022/07/31 05:09:28;;;;;;;6.95;3.55;;;;;;;16.84;77.23;100447.50;5108916;28;20035;-69
2022/07/31 05:11:57;;;;;;;5.57;4.05;;;;;;;16.87;75.97;100451.63;5090339;28;20032;-70
2022/07/31 05:14:23;;;;;;;5.90;4.00;;;;;;;16.95;75.98;100444.19;5090121;28;20043;-70
2022/07/31 05:16:49;;;;;;;4.47;3.50;;;;;;;16.96;75.49;100448.50;5107102;28;20040;-69
2022/07/31 05:19:16;;;;;;;4.72;3.50;;;;;;;16.99;75.69;100450.78;5089672;28;20097;-69
2022/07/31 05:22:00;;;;;;;6.57;3.95;;;;;;;17.01;75.81;100446.00;5108161;28;20043;-69
2022/07/31 05:24:26;;;;;;;5.10;3.20;;;;;;;16.99;76.22;100429.25;5108235;28;20400;-69
2022/07/31 05:26:56;;;;;;;7.90;5.03;;;;;;;17.16;75.77;100439.56;5089848;28;20062;-70
2022/07/31 05:29:23;;;;;;;7.75;5.40;;;;;;;17.19;75.51;100439.13;5089280;28;20456;-69
2022/07/31 05:31:50;;;;;;;7.05;5.13;;;;;;;17.29;75.23;100436.84;5107870;28;20112;-69
2022/07/31 05:34:16;;;;;;;8.50;5.63;;;;;;;17.29;74.83;100439.53;5075529;28;20071;-69
2022/07/31 05:36:41;;;;;;;9.90;6.22;;;;;;;17.34;75.02;100437.84;5077390;28;20131;-68
2022/07/31 05:39:08;;;;;;;6.50;4.35;;;;;;;17.38;75.77;100440.09;5092485;28;20474;-67
2022/07/31 05:41:39;;;;;;;4.47;3.85;;;;;;;17.45;74.19;100438.22;5094446;28;20048;-52
2022/07/31 05:44:24;;;;;;;10.05;4.10;;;;;;;17.54;73.08;100428.84;5094161;28;20519;-52
2022/07/31 05:46:49;;;;;;;8.48;6.53;;;;;;;17.63;72.64;100431.09;5075898;28;20032;-51
2022/07/31 05:49:16;;;;;;;7.65;4.85;;;;;;;17.70;72.82;100431.06;5075683;28;20039;-53
2022/07/31 05:51:44;;;;;;;10.23;6.38;;;;;;;17.80;72.67;100442.22;5075754;28;20093;-53
2022/07/31 05:54:11;;;;;;;8.50;5.45;;;;;;;17.89;72.50;100448.19;5075726;28;20056;-54
2022/07/31 05:56:56;;;;;;;4.93;3.70;;;;;;;17.97;71.88;100445.22;5052313;28;20047;-54
2022/07/31 05:59:31;;;;;;;4.82;3.88;;;;;;;18.07;71.41;100450.16;5075275;28;20526;-51
2022/07/31 06:01:57;;;;;;;13.52;9.07;;;;;;;18.15;70.84;100448.00;5075495;28;20036;-52
2022/07/31 06:04:24;;;;;;;5.18;4.35;;;;;;;18.26;71.12;100440.28;5075629;28;20090;-52
2022/07/31 06:06:49;;;;;;;9.10;3.72;;;;;;;18.36;70.59;100436.03;5075730;28;20436;-52
2022/07/31 06:09:15;;;;;;;6.38;4.57;;;;;;;18.45;71.74;100450.06;5093445;28;20044;-49
2022/07/31 06:11:43;;;;;;;4.65;3.63;;;;;;;18.55;71.06;100446.88;5075352;28;20117;-50
2022/07/31 06:14:08;;;;;;;4.68;3.13;;;;;;;18.63;67.35;100447.41;5075509;28;20464;-51
2022/07/31 06:17:06;;;;;;;3.78;3.00;;;;;;;18.72;66.62;100450.72;5077861;28;20039;-53
2022/07/31 06:19:34;;;;;;;4.45;2.88;;;;;;;18.82;65.78;100445.63;5054508;28;20040;-50
2022/07/31 06:21:59;;;;;;;5.03;3.33;;;;;;;18.93;64.22;100435.97;5075068;28;20055;-49
2022/07/31 06:24:27;;;;;;;8.48;4.65;;;;;;;19.06;64.10;100437.72;5075161;28;20070;-51
2022/07/31 06:26:57;;;;;;;4.60;3.60;;;;;;;19.23;63.58;100441.44;5075199;28;20508;-53
2022/07/31 06:29:23;;;;;;;3.80;2.60;;;;;;;19.35;63.17;100445.06;5073770;28;20518;-49
2022/07/31 06:31:48;;;;;;;6.72;3.60;;;;;;;19.44;63.35;100440.19;5078202;28;20107;-49
2022/07/31 06:34:14;;;;;;;6.57;3.35;;;;;;;19.58;62.55;100443.56;5054572;28;20556;-53
2022/07/31 06:36:41;;;;;;;;;;;;;;;19.63;62.95;100441.03;5055023;28;20082;-51
2022/07/31 06:39:11;;;;;;;3.15;2.45;;;;;;;19.73;62.42;100444.81;5054114;28;19916;-51
2022/07/31 06:41:54;;;;;;;5.55;2.40;;;;;;;19.79;61.88;100443.91;5072611;28;20047;-53
2022/07/31 06:44:26;;;;;;;3.88;2.75;;;;;;;19.89;61.45;100446.06;5071743;28;20078;-49
2022/07/31 06:47:10;;;;;;;3.13;2.65;;;;;;;19.96;61.88;100452.19;5072761;28;20465;-53
2022/07/31 06:49:54;;;;;;;2.78;2.33;;;;;;;20.02;61.81;100442.34;5054344;28;20044;-54
2022/07/31 06:52:23;;;;;;;4.63;2.60;;;;;;;20.03;62.07;100438.59;5054779;28;20489;-55
2022/07/31 06:54:48;;;;;;;7.28;2.70;;;;;;;20.15;62.03;100447.56;5054578;28;20036;-57
2022/07/31 06:57:14;;;;;;;5.40;2.55;;;;;;;20.28;61.19;100441.94;5054523;28;20481;-54
2022/07/31 06:59:40;;;;;;;2.70;2.47;;;;;;;20.42;61.23;100452.56;5054128;28;20033;-58
2022/07/31 07:02:06;;;;;;;4.20;2.83;;;;;;;20.50;60.15;100444.94;5054416;28;20090;-55
2022/07/31 07:04:32;;;;;;;2.85;2.33;;;;;;;20.64;58.77;100444.72;5054272;28;20032;-57
2022/07/31 07:06:57;;;;;;;7.10;2.88;;;;;;;20.68;57.47;100443.19;5054337;28;20389;-57
2022/07/31 07:09:23;;;;;;;2.10;1.90;;;;;;;20.77;57.79;100441.78;5053945;28;20094;-58
2022/07/31 07:11:49;;;;;;;7.72;3.10;;;;;;;20.82;58.02;100448.13;5072070;28;20044;-56
2022/07/31 07:14:15;;;;;;;3.30;2.33;;;;;;;20.89;59.01;100444.50;5072276;28;20111;-56
2022/07/31 07:16:40;;;;;;;6.10;2.58;;;;;;;21.09;57.44;100448.47;5054119;28;20447;-58
2022/07/31 07:19:06;;;;;;;7.05;3.00;;;;;;;21.22;58.02;100438.44;5053576;28;20063;-57
2022/07/31 07:21:31;;;;;;;3.88;2.83;;;;;;;21.29;57.10;100439.16;5054010;28;20040;-55
2022/07/31 07:23:57;;;;;;;4.18;2.42;;;;;;;21.39;57.04;100439.38;5053988;28;20066;-58
2022/07/31 07:26:28;;;;;;;3.03;2.60;;;;;;;21.57;56.51;100443.78;5054018;28;20118;-55
2022/07/31 07:28:54;;;;;;;4.90;2.25;;;;;;;21.72;55.49;100440.56;5053708;28;20040;-56
2022/07/31 07:31:19;;;;;;;6.50;2.40;;;;;;;21.91;54.47;100436.59;5053396;28;20557;-55
2022/07/31 07:33:46;;;;;;;5.03;2.63;;;;;;;22.09;54.25;100439.13;5053838;28;20405;-62
2022/07/31 07:36:16;;;;;;;4.03;2.53;;;;;;;22.33;52.84;100434.38;5053991;28;20033;-53
2022/07/31 07:38:42;;;;;;;4.28;3.22;;;;;;;22.50;52.58;100434.38;5053649;28;20048;-52
2022/07/31 07:41:07;;;;;;;4.18;2.63;;;;;;;22.71;52.76;100424.66;5053583;28;20056;-54
2022/07/31 07:43:33;;;;;;;4.32;2.60;;;;;;;22.77;52.63;100433.72;5053679;28;20367;-54
2022/07/31 07:45:58;;;;;;;4.68;3.10;;;;;;;22.93;52.46;100427.44;5071576;28;20120;-49
2022/07/31 07:48:24;;;;;;;2.75;2.00;;;;;;;23.11;49.88;100429.06;5053427;28;20036;-53
2022/07/31 07:51:19;;;;;;;3.53;2.30;;;;;;;23.41;48.75;100424.00;5040269;28;20048;-50
2022/07/31 07:53:57;;;;;;;3.15;2.00;;;;;;;23.72;47.27;100417.03;5038847;28;20036;-59
2022/07/31 07:56:23;;;;;;;5.20;2.45;;;;;;;23.79;47.52;100423.09;5071342;28;20501;-61
2022/07/31 07:59:14;;;;;;;4.78;1.90;;;;;;;24.01;45.85;100414.88;5047402;28;20486;-62
2022/07/31 08:01:59;;;;;;;3.63;1.95;;;;;;;24.09;47.24;100414.41;5071647;28;20069;-61
2022/07/31 08:04:28;;;;;;;2.97;2.00;;;;;;;24.34;45.25;100408.41;5053369;28;20103;-62
2022/07/31 08:06:53;;;;;;;2.85;1.90;;;;;;;24.61;44.99;100412.94;5071341;28;20119;-61
2022/07/31 08:09:23;;;;;;;3.97;2.17;;;;;;;24.71;43.53;100414.91;5053264;28;20036;-62
2022/07/31 08:12:24;;;;;;;2.65;1.85;;;;;;;24.82;43.64;100406.53;5039678;28;20053;-62
2022/07/31 08:15:05;;;;;;;3.17;1.80;;;;;;;24.82;43.96;100405.72;5071293;28;20037;-61
2022/07/31 08:17:42;;;;;;;1.80;1.70;;;;;;;24.93;43.89;100401.16;5071555;28;20477;-62
2022/07/31 08:20:08;;;;;;;3.22;1.95;;;;;;;24.95;44.53;100401.72;5052853;28;20035;-61
2022/07/31 08:22:34;;;;;;;2.40;1.77;;;;;;;25.12;43.71;100405.94;5053199;28;20037;-60
2022/07/31 08:24:59;;;;;;;5.00;2.42;;;;;;;25.19;43.47;100399.41;5053158;28;20036;-62
2022/07/31 08:27:26;;;;;;;4.78;2.03;;;;;;;25.27;42.17;100390.72;5036560;28;20040;-62
2022/07/31 08:29:55;;;;;;;4.25;2.38;;;;;;;25.59;41.53;100398.72;5052877;28;20105;-62
2022/07/31 08:32:22;;;;;;;4.05;2.00;;;;;;;25.72;42.67;100395.47;5052854;28;20553;-61
2022/07/31 08:35:13;;;;;;;4.28;1.88;;;;;;;26.07;40.68;100402.09;5065995;28;20119;-61
2022/07/31 08:37:42;;;;;;;3.00;1.95;;;;;;;26.10;40.93;100394.19;5053093;28;20498;-62
2022/07/31 08:40:08;;;;;;;3.88;1.88;;;;;;;26.26;40.58;100392.28;5052725;28;20036;-61
2022/07/31 08:42:36;;;;;;;3.38;1.60;;;;;;;26.29;39.90;100401.84;5053021;28;20039;-62
2022/07/31 08:45:06;;;;;;;2.53;2.20;;;;;;;26.36;39.69;100392.28;5053267;28;20451;-61
2022/07/31 08:47:33;;;;;;;2.28;2.00;;;;;;;26.37;39.78;100382.19;5052980;28;20028;-61
2022/07/31 08:50:06;;;;;;;2.33;1.65;;;;;;;26.59;39.44;100390.91;5053091;28;20456;-61
2022/07/31 08:52:33;;;;;;;5.82;2.00;;;;;;;26.63;38.89;100385.72;5070802;28;20036;-61
2022/07/31 08:55:06;;;;;;;2.03;1.55;;;;;;;26.75;38.86;100387.06;5052854;28;20338;-61
2022/07/31 08:57:32;;;;;;;3.58;2.17;;;;;;;26.81;39.63;100382.41;5070885;28;20120;-61
2022/07/31 08:59:58;;;;;;;3.90;1.90;;;;;;;27.11;39.65;100386.97;5052538;28;20496;-61
2022/07/31 09:02:24;;;;;;;2.47;1.65;;;;;;;27.38;38.15;100366.59;5052545;28;20505;-61
2022/07/31 09:05:08;;;;;;;3.33;1.30;;;;;;;27.58;38.54;100377.44;5070821;28;20056;-61
2022/07/31 09:07:33;;;;;;;3.13;1.77;;;;;;;27.75;37.29;100371.63;5053196;28;20063;-61
2022/07/31 09:09:59;;;;;;;2.08;1.55;;;;;;;27.94;36.39;100375.31;5056250;28;20029;-62
2022/07/31 09:12:29;;;;;;;2.28;1.48;;;;;;;28.03;36.19;100375.50;5056286;28;20064;-61
2022/07/31 09:15:20;;;;;;;2.65;1.35;;;;;;;28.39;35.03;100374.13;5074345;28;20048;-61
2022/07/31 09:17:46;;;;;;;2.00;1.50;;;;;;;28.63;35.44;100365.13;5056477;28;20028;-61
2022/07/31 09:20:23;;;;;;;2.60;1.63;;;;;;;28.67;37.53;100366.16;5057491;28;20033;-62
2022/07/31 09:23:06;;;;;;;1.70;1.30;;;;;;;28.80;35.80;100360.00;5056248;28;20029;-62
2022/07/31 09:25:33;;;;;;;2.67;1.42;;;;;;;28.89;35.87;100357.44;5056121;28;20120;-62
2022/07/31 09:28:02;;;;;;;2.72;1.48;;;;;;;29.04;38.42;100354.53;5056050;28;20079;-62
2022/07/31 09:30:28;;;;;;;1.60;1.45;;;;;;;29.44;35.11;100355.91;5055549;28;20536;-62
2022/07/31 09:32:53;;;;;;;2.83;1.60;;;;;;;29.44;33.35;100358.66;5074266;28;20143;-62
2022/07/31 09:35:29;;;;;;;1.83;1.40;;;;;;;29.36;32.81;100342.88;5056054;28;20051;-62
2022/07/31 09:37:55;;;;;;;1.40;1.30;;;;;;;29.45;33.53;100338.34;5055982;28;20041;-62
2022/07/31 09:40:42;;;;;;;2.53;1.40;;;;;;;29.63;32.67;100335.94;5073818;28;20101;-62
2022/07/31 09:43:42;;;;;;;4.60;1.45;;;;;;;29.82;34.21;100341.41;5055920;28;20067;-62
2022/07/31 09:46:08;;;;;;;2.30;1.45;;;;;;;29.87;33.60;100346.81;5055621;28;20060;-60
2022/07/31 09:48:35;;;;;;;4.43;1.65;;;;;;;29.69;33.34;100351.19;5055670;28;20020;-62
2022/07/31 09:51:05;;;;;;;;;;;;;;;29.43;34.27;100348.00;5055865;28;20139;-62
2022/07/31 09:53:46;;;;;;;2.05;1.45;;;;;;;29.45;34.96;100346.56;5055643;28;19995;-63
2022/07/31 09:56:32;;;;;;;2.30;1.75;;;;;;;29.31;35.11;100348.41;5073856;28;20043;-59
2022/07/31 09:59:00;;;;;;;2.38;1.50;;;;;;;29.28;33.99;100342.69;5055448;28;20054;-61
2022/07/31 10:01:26;;;;;;;2.42;1.40;;;;;;;29.08;35.07;100344.63;5055249;28;20048;-62
2022/07/31 10:03:56;;;;;;;1.55;1.30;;;;;;;29.49;35.61;100335.00;5055317;28;20097;-62
2022/07/31 10:06:25;;;;;;;2.75;1.23;;;;;;;29.99;34.18;100336.16;5055377;28;20037;-62
2022/07/31 10:08:52;;;;;;;2.28;1.30;;;;;;;30.11;33.89;100336.53;5055511;28;20496;-63
2022/07/31 10:11:38;;;;;;;2.03;1.48;;;;;;;30.10;34.21;100329.41;5055411;28;20060;-63
2022/07/31 10:14:15;;;;;;;2.95;1.73;;;;;;;30.12;33.99;100332.66;5055575;28;20447;-62
2022/07/31 10:16:42;;;;;;;1.30;1.20;;;;;;;30.35;32.54;100332.81;5038827;28;20032;-62
2022/07/31 10:19:30;;;;;;;2.40;1.33;;;;;;;30.05;33.25;100336.88;5073130;28;20042;-62
2022/07/31 10:22:18;;;;;;;2.30;1.48;;;;;;;30.09;32.16;100326.94;5054996;28;20032;-62
2022/07/31 10:24:47;;;;;;;2.50;1.42;;;;;;;30.21;32.77;100327.31;5055079;28;20481;-62
2022/07/31 10:27:15;;;;;;;3.25;1.20;;;;;;;30.10;32.74;100325.84;5055026;28;20254;-62
2022/07/31 10:29:42;;;;;;;3.13;1.50;;;;;;;30.05;32.92;100325.91;5054910;28;20028;-62
2022/07/31 10:32:08;;;;;;;4.55;1.60;;;;;;;30.39;33.73;100311.88;5084013;22;20058;-63
2022/07/31 10:34:39;;;;;;;2.97;1.60;;;;;;;30.65;32.40;100314.94;5076735;28;20044;-64
2022/07/31 10:37:37;;;;;;;2.50;1.20;;;;;;;31.19;31.83;100319.59;5063270;28;20097;-64
2022/07/31 10:40:20;;;;;;;1.38;1.27;;;;;;;31.86;30.84;100303.19;5075558;28;20059;-64
2022/07/31 10:43:19;;;;;;;2.33;1.58;;;;;;;32.61;29.03;100301.50;5055708;28;20431;-64
2022/07/31 10:46:00;;;;;;;3.38;1.50;;;;;;;33.53;29.53;100301.53;5055784;28;20032;-63
2022/07/31 10:48:51;;;;;;;2.40;1.75;;;;;;;34.02;28.59;100299.38;5073146;28;20044;-63
2022/07/31 10:51:50;;;;;;;3.10;1.30;;;;;;;34.09;27.50;100288.63;5073048;28;20101;-63
2022/07/31 10:54:46;;;;;;;5.38;1.40;;;;;;;33.90;27.32;100293.69;5059435;28;20044;-62
2022/07/31 10:57:33;;;;;;;2.15;1.10;;;;;;;33.72;27.79;100288.22;5073183;28;20467;-62
2022/07/31 11:00:26;;;;;;;3.60;1.35;;;;;;;33.57;28.95;100294.22;5052603;28;20040;-63
2022/07/31 11:03:14;;;;;;;2.95;1.50;;;;;;;33.52;29.46;100286.13;5072313;28;20040;-51
2022/07/31 11:06:00;;;;;;;4.65;1.40;;;;;;;33.90;28.88;100285.41;5072272;28;20036;-62
2022/07/31 11:08:51;;;;;;;2.53;1.30;;;;;;;34.03;28.96;100284.41;5072647;28;20060;-64
2022/07/31 11:11:39;;;;;;;1.55;1.27;;;;;;;33.66;28.84;100278.47;5063842;28;20041;-63
2022/07/31 11:14:34;;;;;;;2.75;1.40;;;;;;;33.91;28.48;100270.50;5072681;28;20142;-63
2022/07/31 11:17:38;;;;;;;5.38;1.70;;;;;;;34.22;28.46;100271.03;5072111;28;20036;-63
2022/07/31 11:20:40;;;;;;;1.85;1.40;;;;;;;34.73;28.10;100280.25;5060966;28;20044;-63
2022/07/31 11:23:09;;;;;;;1.58;1.48;;;;;;;35.05;27.42;100269.66;5071992;28;20040;-63
2022/07/31 11:25:36;;;;;;;3.00;1.58;;;;;;;35.00;27.21;100278.97;5072052;28;20397;-63
2022/07/31 11:28:09;;;;;;;3.17;2.17;;;;;;;35.00;27.55;100262.34;5054331;28;20036;-63
2022/07/31 11:31:10;;;;;;;2.75;1.60;;;;;;;34.85;27.54;100273.19;5071239;28;20044;-62
2022/07/31 11:33:42;;;;;;;6.28;1.67;;;;;;;34.37;27.48;100269.69;5010083;28;20077;-62
2022/07/31 11:36:23;;;;;;;2.53;1.30;;;;;;;34.84;27.82;100255.78;5044052;28;20575;-62
2022/07/31 11:38:59;;;;;;;2.45;1.55;;;;;;;34.86;26.91;100249.91;5072132;28;20436;-62
2022/07/31 11:41:28;;;;;;;3.60;1.73;;;;;;;35.34;27.11;100241.91;5054462;28;20102;-63
2022/07/31 11:43:56;;;;;;;1.95;1.20;;;;;;;35.46;27.12;100254.19;5071880;28;20036;-63
2022/07/31 11:46:32;;;;;;;4.35;1.83;;;;;;;35.54;26.37;100245.81;5071835;28;20028;-62
2022/07/31 11:48:59;;;;;;;2.25;1.50;;;;;;;35.48;25.60;100238.06;5071583;28;20040;-62
2022/07/31 11:51:26;;;;;;;2.17;1.60;;;;;;;35.05;26.24;100241.97;5071460;28;20024;-62
2022/07/31 11:53:54;;;;;;;2.45;1.60;;;;;;;34.93;26.93;100236.38;5071586;28;20048;-62
2022/07/31 11:56:20;;;;;;;2.22;1.50;;;;;;;35.31;26.88;100242.56;5071591;28;20040;-63
2022/07/31 11:58:50;;;;;;;2.72;1.80;;;;;;;35.86;26.10;100233.09;5071502;28;20037;-61
2022/07/31 12:01:17;;;;;;;3.10;1.50;;;;;;;35.99;27.07;100224.81;5071401;28;20032;-62
2022/07/31 12:03:44;;;;;;;3.90;2.13;;;;;;;36.46;25.39;100208.59;5071595;28;20031;-62
2022/07/31 12:06:10;;;;;;;3.03;1.88;;;;;;;36.13;26.10;100203.16;5071576;28;20044;-62
2022/07/31 12:08:36;;;;;;;3.25;1.63;;;;;;;35.46;26.41;100207.94;5071351;28;20182;-63
2022/07/31 12:11:04;;;;;;;3.03;1.77;;;;;;;35.65;26.19;100209.38;5053142;28;20541;-62
2022/07/31 12:13:31;;;;;;;2.15;1.92;;;;;;;35.59;26.81;100208.78;5071470;28;20032;-62
2022/07/31 12:16:06;;;;;;;1.70;1.50;;;;;;;35.38;25.08;100199.69;5053575;28;20097;-63
2022/07/31 12:18:49;;;;;;;4.63;2.20;;;;;;;36.02;25.42;100201.97;5053901;28;20124;-62
2022/07/31 12:21:16;;;;;;;1.90;1.40;;;;;;;35.73;25.29;100189.06;5071068;28;20076;-63
2022/07/31 12:23:45;;;;;;;3.47;1.42;;;;;;;35.48;26.13;100189.03;5053502;28;20028;-62
2022/07/31 12:26:32;;;;;;;2.67;1.42;;;;;;;35.34;26.00;100186.53;5071358;28;20036;-63
2022/07/31 12:29:00;;;;;;;1.67;1.40;;;;;;;35.56;25.45;100184.56;5053054;28;20478;-61
2022/07/31 12:31:27;;;;;;;3.30;1.30;;;;;;;35.84;25.06;100179.97;5070727;28;20060;-62
2022/07/31 12:33:53;;;;;;;3.30;1.30;;;;;;;35.72;24.54;100185.50;5071367;28;20075;-62
2022/07/31 12:36:19;;;;;;;3.40;1.40;;;;;;;35.78;25.12;100186.91;5071203;28;20060;-61
2022/07/31 12:38:45;;;;;;;3.75;1.67;;;;;;;36.27;25.60;100175.06;5071111;28;20089;-61
2022/07/31 12:41:12;;;;;;;2.35;1.30;;;;;;;36.99;25.52;100178.09;5070948;28;20115;-62
2022/07/31 12:43:40;;;;;;;1.85;1.38;;;;;;;36.34;25.15;100180.84;5073570;28;20627;-60
2022/07/31 12:46:06;;;;;;;1.73;1.63;;;;;;;36.13;24.85;100178.19;5075047;28;20036;-60
2022/07/31 12:48:32;;;;;;;2.50;1.50;;;;;;;36.78;24.42;100175.44;5075099;28;20062;-61
2022/07/31 12:50:58;;;;;;;1.63;1.48;;;;;;;36.97;23.83;100170.09;5074592;28;20039;-61
2022/07/31 12:53:26;;;;;;;4.53;1.60;;;;;;;36.67;24.66;100170.41;5074955;28;20123;-60
2022/07/31 12:55:51;;;;;;;2.63;1.80;;;;;;;36.80;24.22;100164.84;5075043;28;20107;-60
2022/07/31 12:58:17;;;;;;;1.73;1.17;;;;;;;36.46;24.75;100146.78;5074967;28;20059;-57
2022/07/31 13:00:42;;;;;;;2.03;1.40;;;;;;;36.61;25.25;100151.59;5074524;28;20516;-60
2022/07/31 13:03:08;;;;;;;2.37;1.30;;;;;;;36.52;25.28;100148.16;5074738;28;20512;-61
2022/07/31 13:05:33;;;;;;;1.40;1.30;;;;;;;35.64;25.59;100150.41;5049105;28;20047;-60
2022/07/31 13:07:59;;;;;;;2.40;1.50;;;;;;;34.84;25.47;100147.09;5064553;28;20029;-60
2022/07/31 13:10:27;;;;;;;5.40;1.63;;;;;;;34.60;25.87;100133.91;5039635;28;20431;-60
2022/07/31 13:12:52;;;;;;;3.22;1.52;;;;;;;35.08;26.23;100142.50;5074599;28;20062;-59
2022/07/31 13:15:22;;;;;;;2.43;1.43;;;;;;;35.63;26.17;100134.94;5074491;28;20033;-60
2022/07/31 13:17:47;;;;;;;4.93;1.50;;;;;;;35.94;24.83;100128.09;5074590;28;20044;-59
2022/07/31 13:20:13;;;;;;;1.70;1.33;;;;;;;36.23;25.04;100125.03;5073750;28;20067;-60
2022/07/31 13:22:39;;;;;;;3.17;1.20;;;;;;;36.10;23.49;100128.97;5056669;28;20032;-61
2022/07/31 13:25:04;;;;;;;1.53;1.17;;;;;;;36.59;23.56;100121.44;5056670;28;20039;-61
2022/07/31 13:27:30;;;;;;;2.30;1.30;;;;;;;37.01;23.80;100109.97;5074428;28;20032;-61
2022/07/31 13:29:57;;;;;;;3.23;1.40;;;;;;;36.98;23.42;100104.34;5039030;28;20478;-61
2022/07/31 13:32:23;;;;;;;2.30;1.25;;;;;;;36.83;23.83;100103.06;5074006;28;20032;-61
2022/07/31 13:34:48;;;;;;;5.10;2.03;;;;;;;36.33;23.79;100102.41;5074069;28;20057;-61
2022/07/31 13:37:14;;;;;;;1.90;1.37;;;;;;;34.66;25.15;100094.66;5074226;28;20032;-60
2022/07/31 13:39:40;;;;;;;1.80;1.30;;;;;;;34.47;25.94;100102.63;5055450;28;20032;-60
2022/07/31 13:42:05;;;;;;;4.00;1.60;;;;;;;34.37;26.94;100089.19;5073868;28;20048;-60
2022/07/31 13:44:32;;;;;;;2.70;1.40;;;;;;;33.68;26.77;100096.69;5073753;28;20040;-61
2022/07/31 13:46:58;;;;;;;2.53;1.30;;;;;;;33.30;27.34;100095.81;5073935;28;20481;-59
2022/07/31 13:49:28;;;;;;;1.52;1.17;;;;;;;33.25;27.39;100095.97;5072840;28;20124;-61
2022/07/31 13:51:54;;;;;;;2.00;1.10;;;;;;;33.35;27.12;100092.88;5073779;28;20047;-61
2022/07/31 13:54:19;;;;;;;4.00;1.42;;;;;;;33.68;28.15;100095.88;5073360;28;20041;-61
2022/07/31 13:56:45;;;;;;;3.50;1.57;;;;;;;33.70;27.53;100099.09;5073851;28;20123;-61
2022/07/31 13:59:11;;;;;;;3.50;1.30;;;;;;;33.77;27.50;100096.63;5072944;28;20051;-61
2022/07/31 14:01:38;;;;;;;2.47;1.40;;;;;;;33.63;26.59;100083.06;5073572;28;20543;-58
2022/07/31 14:04:04;;;;;;;3.90;1.70;;;;;;;33.63;26.81;100085.81;5073423;28;20124;-60
2022/07/31 14:06:29;;;;;;;4.23;1.33;;;;;;;33.69;26.16;100078.97;5073859;28;20128;-60
2022/07/31 14:08:55;;;;;;;2.40;1.50;;;;;;;33.51;25.61;100077.41;5072137;28;20063;-59
2022/07/31 14:11:20;;;;;;;2.97;1.37;;;;;;;33.27;26.84;100075.22;5073042;28;20034;-60
2022/07/31 14:13:46;;;;;;;1.70;1.20;;;;;;;32.99;26.89;100076.72;5073678;28;20673;-60
2022/07/31 14:16:11;;;;;;;2.73;1.50;;;;;;;32.76;26.95;100068.63;5073432;28;20044;-58
2022/07/31 14:18:36;;;;;;;5.53;1.60;;;;;;;32.72;28.24;100069.59;5073673;28;20068;-63
2022/07/31 14:21:05;;;;;;;2.17;1.53;;;;;;;32.50;29.07;100070.56;5072684;28;20550;-60
2022/07/31 14:23:31;;;;;;;3.17;1.33;;;;;;;32.53;28.75;100061.63;5073483;28;20033;-60
2022/07/31 14:25:56;;;;;;;2.83;1.52;;;;;;;32.48;28.29;100061.81;5073072;28;20059;-60
2022/07/31 14:28:23;;;;;;;4.30;1.47;;;;;;;32.51;28.96;100063.91;5073308;28;20500;-60
2022/07/31 14:30:49;;;;;;;;;;;;;;;32.55;28.34;100062.97;5073215;28;20128;-61
2022/07/31 14:33:14;;;;;;;2.53;1.50;;;;;;;32.48;28.67;100054.38;5073099;28;20450;-61
2022/07/31 14:35:41;;;;;;;4.37;1.40;;;;;;;32.64;28.48;100055.47;5073293;28;20478;-62
2022/07/31 14:38:06;;;;;;;6.15;1.30;;;;;;;32.31;29.04;100065.34;5073081;28;20040;-59
2022/07/31 14:40:32;;;;;;;3.45;1.40;;;;;;;32.31;29.13;100057.06;5072546;28;20047;-61
2022/07/31 14:42:58;;;;;;;2.30;1.50;;;;;;;32.11;29.01;100047.50;5072980;28;20043;-61
2022/07/31 14:45:23;;;;;;;2.40;1.33;;;;;;;32.07;29.55;100046.50;5072898;28;20036;-61
2022/07/31 14:47:49;;;;;;;2.90;1.63;;;;;;;32.02;29.61;100036.47;5054985;28;20374;-61
2022/07/31 14:50:14;;;;;;;2.87;1.47;;;;;;;32.12;29.91;100049.91;5054778;28;20509;-60
2022/07/31 14:52:40;;;;;;;2.50;1.70;;;;;;;32.12;30.29;100043.59;5054714;28;20028;-61
2022/07/31 14:55:06;;;;;;;2.95;1.42;;;;;;;31.93;29.68;100043.06;5072700;28;20103;-60
2022/07/31 14:57:32;;;;;;;2.28;1.40;;;;;;;31.79;29.11;100044.00;5054913;28;20110;-60
2022/07/31 14:59:57;;;;;;;3.27;1.40;;;;;;;31.91;29.27;100045.34;5072487;28;20037;-61
2022/07/31 15:02:23;;;;;;;1.50;1.20;;;;;;;32.04;28.99;100045.22;5072914;28;20440;-59
2022/07/31 15:04:52;;;;;;;3.30;1.45;;;;;;;32.23;29.24;100036.66;5072436;28;20087;-60
2022/07/31 15:07:18;;;;;;;2.40;1.65;;;;;;;32.25;29.19;100041.84;5072123;28;20447;-59
2022/07/31 15:09:44;;;;;;;4.47;2.85;;;;;;;32.21;29.19;100036.13;5077701;28;20080;-61
2022/07/31 15:12:15;;;;;;;4.05;1.50;;;;;;;32.30;29.35;100038.94;5082739;28;20039;-61
2022/07/31 15:14:41;;;;;;;6.07;5.15;;;;;;;32.24;28.13;100034.69;5077531;28;20044;-60
2022/07/31 15:17:06;;;;;;;1.38;1.27;;;;;;;32.20;27.84;100030.97;5073057;28;20052;-61
2022/07/31 15:19:32;;;;;;;1.87;1.50;;;;;;;32.32;28.53;100034.69;5072918;28;20071;-61
2022/07/31 15:21:57;;;;;;;2.90;1.50;;;;;;;32.25;29.22;100028.88;5072739;28;20036;-59
2022/07/31 15:24:23;;;;;;;2.60;1.73;;;;;;;32.19;29.40;100027.41;5072159;28;20076;-61
2022/07/31 15:26:48;;;;;;;4.28;1.50;;;;;;;32.23;27.99;100030.31;5072111;28;20040;-59
2022/07/31 15:29:14;;;;;;;3.40;1.30;;;;;;;32.32;27.51;100022.88;5072118;28;20043;-62
2022/07/31 15:31:39;;;;;;;6.00;1.40;;;;;;;32.33;27.83;100014.31;5071949;28;20109;-60
2022/07/31 15:34:05;;;;;;;3.65;1.70;;;;;;;32.47;28.17;100018.84;5054150;28;20433;-62
2022/07/31 15:36:30;;;;;;;1.90;1.30;;;;;;;32.50;27.70;100021.78;5071876;28;20037;-62
2022/07/31 15:38:56;;;;;;;1.43;1.23;;;;;;;32.40;27.12;100020.13;5072073;28;20094;-60
2022/07/31 15:41:21;;;;;;;1.27;1.17;;;;;;;32.48;27.46;100018.53;5072044;28;20119;-59
2022/07/31 15:43:46;;;;;;;4.93;1.50;;;;;;;32.43;27.53;100015.13;5072073;28;20048;-61
2022/07/31 15:46:12;;;;;;;2.57;1.30;;;;;;;32.46;27.27;100015.28;5071805;28;20032;-61
2022/07/31 15:48:37;;;;;;;1.73;1.23;;;;;;;32.46;27.10;100012.50;5071793;28;20072;-59
2022/07/31 15:51:04;;;;;;;6.10;1.55;;;;;;;32.44;27.23;100001.03;5071404;28;20046;-59
2022/07/31 15:53:29;;;;;;;2.53;1.00;;;;;;;32.45;27.62;99999.06;5071694;28;20036;-61
2022/07/31 15:55:55;;;;;;;5.40;1.15;;;;;;;32.54;27.32;100008.13;5071981;28;20446;-60
2022/07/31 15:58:20;;;;;;;2.93;1.27;;;;;;;32.43;27.08;100007.66;5071730;28;20036;-60
2022/07/31 16:00:46;;;;;;;3.15;1.05;;;;;;;32.34;27.56;99993.06;5053380;28;20131;-59
2022/07/31 16:03:11;;;;;;;1.27;1.10;;;;;;;32.33;27.33;99994.22;5071701;28;20054;-61